SXS8RW EDDG-LTAI
Flight info
| Callsign | SXS8RW |
|---|---|
| Flight time | N/A |
| Altitude | 35000 |
| Route | OSNAD1E/07 OSNAD L980 SAS DCT KUMER DCT ARMUT DCT LULAR DCT DEXIT/N0461F370 DCT BARUG DCT SASAL DCT SOGMO DCT BABIT DCT OKLOP DCT OBAGI DCT NISVA N131 RODIP UN131 KOZLU |
| Aircraft | B738/M-SDE2E3FGHIRWXY/LB1 |
Departure
| Time | 2026-05-08 20:48 |
|---|---|
| Airport | Münster Osnabrück Airport (EDDG) |
Arrival
| Time | N/A |
|---|---|
| Airport | Antalya International Airport (LTAI) |
| Time | Latitude | Longitude | Altitude | Speed | Heading |
|---|---|---|---|---|---|
| 2026-05-08 20:05 | 52.13154 | 7.69298 | 163 ft | 0 kts | 196° |
| 2026-05-08 20:39 | 52.13152 | 7.69295 | 163 ft | 1 kts | 214° |
| 2026-05-08 20:40 | 52.13152 | 7.69278 | 163 ft | 2 kts | 283° |
| 2026-05-08 20:40 | 52.13163 | 7.69260 | 163 ft | 3 kts | 318° |
| 2026-05-08 20:40 | 52.13178 | 7.69244 | 163 ft | 3 kts | 328° |
| 2026-05-08 20:40 | 52.13196 | 7.69221 | 163 ft | 4 kts | 302° |
| 2026-05-08 20:41 | 52.13196 | 7.69180 | 163 ft | 4 kts | 261° |
| 2026-05-08 20:41 | 52.13188 | 7.69134 | 163 ft | 6 kts | 251° |
| 2026-05-08 20:41 | 52.13171 | 7.69055 | 163 ft | 8 kts | 251° |
| 2026-05-08 20:41 | 52.13158 | 7.68969 | 163 ft | 8 kts | 277° |
| 2026-05-08 20:42 | 52.13204 | 7.68923 | 163 ft | 8 kts | 346° |
| 2026-05-08 20:42 | 52.13256 | 7.68901 | 163 ft | 8 kts | 343° |
| 2026-05-08 20:42 | 52.13304 | 7.68869 | 163 ft | 7 kts | 343° |
| 2026-05-08 20:42 | 52.13347 | 7.68829 | 163 ft | 7 kts | 302° |
| 2026-05-08 20:43 | 52.13347 | 7.68751 | 163 ft | 7 kts | 253° |
| 2026-05-08 20:43 | 52.13332 | 7.68676 | 163 ft | 7 kts | 251° |
| 2026-05-08 20:43 | 52.13315 | 7.68599 | 165 ft | 7 kts | 251° |
| 2026-05-08 20:43 | 52.13299 | 7.68521 | 167 ft | 7 kts | 251° |
| 2026-05-08 20:44 | 52.13277 | 7.68422 | 166 ft | 12 kts | 251° |
| 2026-05-08 20:44 | 52.13246 | 7.68273 | 165 ft | 15 kts | 251° |
| 2026-05-08 20:44 | 52.13211 | 7.68107 | 164 ft | 15 kts | 250° |
| 2026-05-08 20:44 | 52.13178 | 7.67949 | 163 ft | 15 kts | 251° |
| 2026-05-08 20:45 | 52.13146 | 7.67799 | 162 ft | 14 kts | 251° |
| 2026-05-08 20:45 | 52.13125 | 7.67700 | 161 ft | 13 kts | 251° |
| 2026-05-08 20:45 | 52.13085 | 7.67515 | 161 ft | 13 kts | 250° |
| 2026-05-08 20:45 | 52.13055 | 7.67378 | 160 ft | 13 kts | 251° |
| 2026-05-08 20:46 | 52.13031 | 7.67255 | 161 ft | 10 kts | 252° |
| 2026-05-08 20:46 | 52.13036 | 7.67150 | 164 ft | 9 kts | 293° |
| 2026-05-08 20:46 | 52.13078 | 7.67072 | 163 ft | 9 kts | 324° |
| 2026-05-08 20:46 | 52.13135 | 7.67038 | 164 ft | 9 kts | 357° |
| 2026-05-08 20:47 | 52.13172 | 7.67101 | 163 ft | 4 kts | 71° |
| 2026-05-08 20:47 | 52.13173 | 7.67101 | 163 ft | 0 kts | 71° |
| 2026-05-08 20:47 | 52.13199 | 7.67227 | 163 ft | 44 kts | 71° |
| 2026-05-08 20:47 | 52.13386 | 7.68109 | 166 ft | 120 kts | 71° |
| 2026-05-08 20:48 | 52.13727 | 7.69730 | 248 ft | 175 kts | 71° |
| 2026-05-08 20:48 | 52.14105 | 7.71598 | 1218 ft | 170 kts | 71° |
| 2026-05-08 20:48 | 52.14489 | 7.73409 | 2138 ft | 170 kts | 70° |
| 2026-05-08 20:48 | 52.14872 | 7.75189 | 3021 ft | 165 kts | 71° |
| 2026-05-08 20:49 | 52.15253 | 7.76978 | 3695 ft | 175 kts | 72° |
| 2026-05-08 20:49 | 52.15682 | 7.79027 | 3943 ft | 206 kts | 72° |
| 2026-05-08 20:49 | 52.16170 | 7.81368 | 4155 ft | 231 kts | 72° |
| 2026-05-08 20:49 | 52.16591 | 7.84055 | 4450 ft | 254 kts | 82° |
| 2026-05-08 20:50 | 52.16830 | 7.86952 | 5159 ft | 262 kts | 84° |
| 2026-05-08 20:50 | 52.17040 | 7.89920 | 5984 ft | 266 kts | 84° |
| 2026-05-08 20:50 | 52.17182 | 7.91922 | 6492 ft | 270 kts | 83° |
| 2026-05-08 20:50 | 52.17401 | 7.94932 | 7294 ft | 273 kts | 83° |
| 2026-05-08 20:51 | 52.17714 | 7.99102 | 8356 ft | 279 kts | 83° |
| 2026-05-08 20:51 | 52.17874 | 8.01193 | 8831 ft | 283 kts | 83° |
| 2026-05-08 20:51 | 52.18204 | 8.05469 | 9779 ft | 291 kts | 83° |
| 2026-05-08 20:51 | 52.18377 | 8.07692 | 10284 ft | 293 kts | 83° |
| 2026-05-08 20:52 | 52.18640 | 8.11065 | 10707 ft | 312 kts | 83° |
| 2026-05-08 20:52 | 52.18924 | 8.14716 | 10893 ft | 336 kts | 83° |
| 2026-05-08 20:52 | 52.19226 | 8.18587 | 11277 ft | 351 kts | 83° |
| 2026-05-08 20:52 | 52.19531 | 8.22514 | 11928 ft | 356 kts | 83° |
| 2026-05-08 20:53 | 52.19841 | 8.26529 | 12691 ft | 358 kts | 83° |
| 2026-05-08 20:53 | 52.20122 | 8.30581 | 13409 ft | 361 kts | 85° |
| 2026-05-08 20:53 | 52.20278 | 8.34697 | 14052 ft | 366 kts | 87° |
| 2026-05-08 20:53 | 52.20404 | 8.38861 | 14718 ft | 370 kts | 87° |
| 2026-05-08 20:54 | 52.20540 | 8.43090 | 15347 ft | 374 kts | 86° |
| 2026-05-08 20:54 | 52.20687 | 8.47350 | 15992 ft | 378 kts | 86° |
| 2026-05-08 20:54 | 52.20842 | 8.51633 | 16631 ft | 382 kts | 86° |
| 2026-05-08 20:54 | 52.21001 | 8.55986 | 17232 ft | 386 kts | 86° |
| 2026-05-08 20:55 | 52.21161 | 8.60377 | 17816 ft | 390 kts | 86° |
| 2026-05-08 20:55 | 52.21320 | 8.64816 | 18385 ft | 394 kts | 86° |
| 2026-05-08 20:55 | 52.21479 | 8.69296 | 18952 ft | 397 kts | 86° |
| 2026-05-08 20:55 | 52.21637 | 8.73814 | 19517 ft | 401 kts | 86° |
| 2026-05-08 20:56 | 52.21793 | 8.78361 | 20077 ft | 404 kts | 86° |
| 2026-05-08 20:56 | 52.21950 | 8.82962 | 20590 ft | 408 kts | 86° |
| 2026-05-08 20:56 | 52.22106 | 8.87597 | 21089 ft | 411 kts | 86° |
| 2026-05-08 20:56 | 52.22263 | 8.92278 | 21581 ft | 415 kts | 86° |
| 2026-05-08 20:57 | 52.22419 | 8.96992 | 22074 ft | 418 kts | 86° |
| 2026-05-08 20:57 | 52.22573 | 9.01743 | 22552 ft | 421 kts | 86° |
| 2026-05-08 20:57 | 52.22729 | 9.06486 | 22986 ft | 425 kts | 86° |
| 2026-05-08 20:57 | 52.22889 | 9.11315 | 23433 ft | 428 kts | 86° |
| 2026-05-08 20:58 | 52.23051 | 9.16180 | 23842 ft | 431 kts | 86° |
| 2026-05-08 20:58 | 52.23211 | 9.21072 | 24271 ft | 434 kts | 86° |
| 2026-05-08 20:58 | 52.23369 | 9.26012 | 24713 ft | 436 kts | 86° |
| 2026-05-08 20:58 | 52.23523 | 9.30973 | 25102 ft | 439 kts | 87° |
| 2026-05-08 20:59 | 52.23672 | 9.35966 | 25486 ft | 442 kts | 87° |
| 2026-05-08 20:59 | 52.23817 | 9.40987 | 25882 ft | 444 kts | 87° |
| 2026-05-08 20:59 | 52.23961 | 9.46031 | 26267 ft | 447 kts | 87° |
| 2026-05-08 20:59 | 52.24106 | 9.51121 | 26612 ft | 450 kts | 87° |
| 2026-05-08 21:00 | 52.24247 | 9.56180 | 26966 ft | 452 kts | 87° |
| 2026-05-08 21:00 | 52.24388 | 9.61315 | 27304 ft | 454 kts | 87° |
| 2026-05-08 21:00 | 52.24529 | 9.66473 | 27618 ft | 457 kts | 87° |
| 2026-05-08 21:00 | 52.24670 | 9.71691 | 27957 ft | 459 kts | 87° |
| 2026-05-08 21:01 | 52.24806 | 9.76899 | 28291 ft | 461 kts | 87° |
| 2026-05-08 21:01 | 52.24717 | 9.82133 | 28556 ft | 463 kts | 101° |
| 2026-05-08 21:01 | 52.23685 | 9.87113 | 28805 ft | 464 kts | 119° |
| 2026-05-08 21:01 | 52.21863 | 9.91428 | 29133 ft | 462 kts | 134° |
| 2026-05-08 21:02 | 52.19424 | 9.94772 | 29431 ft | 459 kts | 148° |
| 2026-05-08 21:02 | 52.16745 | 9.97643 | 29710 ft | 460 kts | 149° |
| 2026-05-08 21:02 | 52.14034 | 10.00450 | 29920 ft | 463 kts | 150° |
| 2026-05-08 21:02 | 52.11300 | 10.03265 | 30159 ft | 465 kts | 150° |
| 2026-05-08 21:03 | 52.08568 | 10.06097 | 30421 ft | 466 kts | 149° |
| 2026-05-08 21:03 | 52.05835 | 10.08955 | 30701 ft | 466 kts | 149° |
| 2026-05-08 21:03 | 52.03149 | 10.11788 | 31020 ft | 466 kts | 149° |
| 2026-05-08 21:03 | 52.00438 | 10.14660 | 31389 ft | 464 kts | 149° |
| 2026-05-08 21:04 | 51.97736 | 10.17523 | 31733 ft | 463 kts | 149° |
| 2026-05-08 21:04 | 51.95038 | 10.20381 | 32002 ft | 464 kts | 149° |
| 2026-05-08 21:04 | 51.92332 | 10.23248 | 32265 ft | 464 kts | 149° |
| 2026-05-08 21:04 | 51.89635 | 10.26095 | 32589 ft | 463 kts | 149° |
| 2026-05-08 21:05 | 51.86941 | 10.28933 | 32915 ft | 462 kts | 150° |
| 2026-05-08 21:05 | 51.84247 | 10.31764 | 33185 ft | 461 kts | 150° |
| 2026-05-08 21:05 | 51.81549 | 10.34595 | 33465 ft | 461 kts | 150° |
| 2026-05-08 21:05 | 51.78857 | 10.37417 | 33751 ft | 461 kts | 150° |
| 2026-05-08 21:06 | 51.76177 | 10.40222 | 34052 ft | 459 kts | 149° |
| 2026-05-08 21:06 | 51.73497 | 10.43023 | 34413 ft | 456 kts | 149° |
| 2026-05-08 21:06 | 51.70850 | 10.45787 | 34677 ft | 456 kts | 149° |
| 2026-05-08 21:06 | 51.68167 | 10.48584 | 34811 ft | 458 kts | 149° |
| 2026-05-08 21:07 | 51.65484 | 10.51377 | 34981 ft | 460 kts | 149° |
| 2026-05-08 21:07 | 51.62798 | 10.54170 | 35225 ft | 459 kts | 149° |
| 2026-05-08 21:07 | 51.60114 | 10.56957 | 35479 ft | 458 kts | 149° |
| 2026-05-08 21:07 | 51.57432 | 10.59738 | 35679 ft | 459 kts | 149° |
| 2026-05-08 21:08 | 51.54749 | 10.62516 | 35840 ft | 460 kts | 149° |
| 2026-05-08 21:08 | 51.52040 | 10.65282 | 36032 ft | 460 kts | 150° |
| 2026-05-08 21:08 | 51.49317 | 10.67961 | 36245 ft | 459 kts | 151° |
| 2026-05-08 21:08 | 51.46576 | 10.70604 | 36422 ft | 459 kts | 151° |
| 2026-05-08 21:09 | 51.43829 | 10.73235 | 36564 ft | 461 kts | 151° |
| 2026-05-08 21:09 | 51.41081 | 10.75866 | 36760 ft | 460 kts | 151° |
| 2026-05-08 21:09 | 51.38339 | 10.78497 | 37040 ft | 457 kts | 151° |
| 2026-05-08 21:09 | 51.35613 | 10.81115 | 37205 ft | 457 kts | 151° |
| 2026-05-08 21:10 | 51.32878 | 10.83744 | 37197 ft | 458 kts | 151° |
| 2026-05-08 21:10 | 51.27465 | 10.88947 | 37193 ft | 454 kts | 151° |
| 2026-05-08 21:11 | 51.23859 | 10.92410 | 37184 ft | 451 kts | 151° |
| 2026-05-08 21:11 | 51.19923 | 10.96180 | 37176 ft | 449 kts | 152° |
| 2026-05-08 21:12 | 51.14567 | 11.01295 | 37178 ft | 447 kts | 152° |
| 2026-05-08 21:12 | 51.09246 | 11.06364 | 37190 ft | 446 kts | 152° |
| 2026-05-08 21:13 | 51.03952 | 11.11393 | 37193 ft | 446 kts | 152° |
| 2026-05-08 21:13 | 50.98608 | 11.16455 | 37194 ft | 448 kts | 152° |
| 2026-05-08 21:14 | 50.93230 | 11.21537 | 37186 ft | 450 kts | 152° |
| 2026-05-08 21:14 | 50.87841 | 11.26615 | 37178 ft | 452 kts | 152° |
| 2026-05-08 21:15 | 50.82426 | 11.31703 | 37191 ft | 454 kts | 152° |
| 2026-05-08 21:15 | 50.76982 | 11.36806 | 37184 ft | 455 kts | 152° |
| 2026-05-08 21:16 | 50.71525 | 11.41907 | 37178 ft | 456 kts | 152° |
| 2026-05-08 21:16 | 50.66060 | 11.47003 | 37167 ft | 457 kts | 152° |
| 2026-05-08 21:17 | 50.60627 | 11.52053 | 37169 ft | 456 kts | 152° |
| 2026-05-08 21:17 | 50.55165 | 11.57116 | 37164 ft | 455 kts | 152° |
| 2026-05-08 21:18 | 50.49721 | 11.62150 | 37157 ft | 453 kts | 152° |
| 2026-05-08 21:18 | 50.44282 | 11.67166 | 37162 ft | 452 kts | 152° |
| 2026-05-08 21:19 | 50.38873 | 11.72140 | 37157 ft | 450 kts | 152° |
| 2026-05-08 21:19 | 50.33476 | 11.77091 | 37150 ft | 449 kts | 152° |
| 2026-05-08 21:20 | 50.28086 | 11.82020 | 37152 ft | 448 kts | 152° |
| 2026-05-08 21:20 | 50.22717 | 11.86918 | 37156 ft | 447 kts | 152° |
| 2026-05-08 21:21 | 50.17381 | 11.91773 | 37157 ft | 446 kts | 152° |
| 2026-05-08 21:21 | 50.12012 | 11.96647 | 37158 ft | 447 kts | 152° |
| 2026-05-08 21:22 | 50.06632 | 12.01518 | 37157 ft | 447 kts | 152° |
| 2026-05-08 21:22 | 50.01233 | 12.06389 | 37148 ft | 448 kts | 152° |
| 2026-05-08 21:23 | 49.95838 | 12.11246 | 37150 ft | 449 kts | 152° |
| 2026-05-08 21:23 | 49.90420 | 12.16114 | 37140 ft | 449 kts | 152° |
| 2026-05-08 21:24 | 49.85005 | 12.20964 | 37138 ft | 450 kts | 153° |
| 2026-05-08 21:24 | 49.79574 | 12.25817 | 37140 ft | 450 kts | 153° |
| 2026-05-08 21:25 | 49.74170 | 12.30636 | 37141 ft | 451 kts | 153° |
| 2026-05-08 21:25 | 49.68971 | 12.36122 | 37151 ft | 455 kts | 144° |
| 2026-05-08 21:26 | 49.64057 | 12.42294 | 37138 ft | 455 kts | 143° |
| 2026-05-08 21:26 | 49.59138 | 12.48443 | 37126 ft | 455 kts | 144° |
| 2026-05-08 21:27 | 49.54200 | 12.54510 | 37132 ft | 454 kts | 144° |
| 2026-05-08 21:27 | 49.49247 | 12.60547 | 37136 ft | 453 kts | 144° |
| 2026-05-08 21:28 | 49.44296 | 12.66566 | 37138 ft | 453 kts | 144° |
| 2026-05-08 21:28 | 49.39352 | 12.72566 | 37136 ft | 453 kts | 144° |
| 2026-05-08 21:29 | 49.34598 | 12.78823 | 37139 ft | 455 kts | 137° |
| 2026-05-08 21:29 | 49.30224 | 12.85866 | 37138 ft | 456 kts | 136° |
| 2026-05-08 21:30 | 49.25884 | 12.92959 | 37135 ft | 456 kts | 136° |
| 2026-05-08 21:30 | 49.21517 | 12.99982 | 37149 ft | 455 kts | 137° |
| 2026-05-08 21:31 | 49.17128 | 13.06960 | 37142 ft | 455 kts | 137° |
| 2026-05-08 21:31 | 49.12758 | 13.13877 | 37153 ft | 455 kts | 137° |
| 2026-05-08 21:32 | 49.08359 | 13.20819 | 37150 ft | 455 kts | 137° |
| 2026-05-08 21:32 | 49.03952 | 13.27759 | 37141 ft | 455 kts | 137° |
| 2026-05-08 21:33 | 48.99529 | 13.34707 | 37144 ft | 456 kts | 137° |
| 2026-05-08 21:33 | 48.95107 | 13.41635 | 37136 ft | 456 kts | 137° |
| 2026-05-08 21:34 | 48.90702 | 13.48519 | 37144 ft | 456 kts | 138° |
| 2026-05-08 21:34 | 48.86269 | 13.55423 | 37130 ft | 457 kts | 138° |
| 2026-05-08 21:35 | 48.81829 | 13.62328 | 37130 ft | 457 kts | 138° |
| 2026-05-08 21:35 | 48.77393 | 13.69207 | 37126 ft | 456 kts | 138° |
| 2026-05-08 21:36 | 48.73910 | 13.75238 | 37123 ft | 458 kts | 131° |
| 2026-05-08 21:36 | 48.70030 | 13.82909 | 37120 ft | 458 kts | 130° |
| 2026-05-08 21:37 | 48.65552 | 13.91828 | 37114 ft | 457 kts | 131° |
| 2026-05-08 21:37 | 48.62327 | 13.98150 | 37108 ft | 456 kts | 131° |
| 2026-05-08 21:38 | 48.58441 | 14.05693 | 37112 ft | 455 kts | 132° |
| 2026-05-08 21:38 | 48.54545 | 14.13220 | 37110 ft | 455 kts | 132° |
| 2026-05-08 21:39 | 48.50645 | 14.20736 | 37111 ft | 454 kts | 132° |
| 2026-05-08 21:39 | 48.46756 | 14.28210 | 37108 ft | 453 kts | 132° |
| 2026-05-08 21:40 | 48.42853 | 14.35694 | 37107 ft | 453 kts | 132° |
| 2026-05-08 21:40 | 48.38957 | 14.43142 | 37117 ft | 453 kts | 132° |
| 2026-05-08 21:41 | 48.33123 | 14.54265 | 37112 ft | 453 kts | 132° |
| 2026-05-08 21:41 | 48.29202 | 14.61705 | 37112 ft | 454 kts | 132° |
| 2026-05-08 21:42 | 48.25272 | 14.69144 | 37113 ft | 455 kts | 132° |
| 2026-05-08 21:42 | 48.21322 | 14.76604 | 37113 ft | 457 kts | 132° |
| 2026-05-08 21:43 | 48.17359 | 14.84066 | 37108 ft | 457 kts | 132° |
| 2026-05-08 21:43 | 48.13390 | 14.91523 | 37112 ft | 458 kts | 133° |
| 2026-05-08 21:44 | 48.09404 | 14.98986 | 37109 ft | 458 kts | 133° |
| 2026-05-08 21:44 | 48.05447 | 15.06378 | 37105 ft | 458 kts | 133° |
| 2026-05-08 21:45 | 48.01455 | 15.13813 | 37113 ft | 458 kts | 133° |
| 2026-05-08 21:45 | 47.97460 | 15.21236 | 37114 ft | 458 kts | 133° |
| 2026-05-08 21:46 | 47.93465 | 15.28641 | 37107 ft | 457 kts | 133° |
| 2026-05-08 21:46 | 47.89480 | 15.36004 | 37105 ft | 456 kts | 133° |
| 2026-05-08 21:47 | 47.85509 | 15.43372 | 37116 ft | 456 kts | 133° |
| 2026-05-08 21:47 | 47.81571 | 15.50693 | 37102 ft | 456 kts | 133° |
| 2026-05-08 21:48 | 47.77592 | 15.58070 | 37105 ft | 456 kts | 133° |
| 2026-05-08 21:48 | 47.73617 | 15.65414 | 37109 ft | 456 kts | 133° |
| 2026-05-08 21:49 | 47.69634 | 15.72750 | 37099 ft | 456 kts | 133° |
| 2026-05-08 21:49 | 47.65637 | 15.80094 | 37096 ft | 457 kts | 133° |
| 2026-05-08 21:50 | 47.61670 | 15.87364 | 37111 ft | 457 kts | 133° |
| 2026-05-08 21:50 | 47.57667 | 15.94678 | 37097 ft | 457 kts | 133° |
| 2026-05-08 21:51 | 47.53662 | 16.01976 | 37097 ft | 456 kts | 133° |
| 2026-05-08 21:51 | 47.49652 | 16.09266 | 37103 ft | 457 kts | 133° |
| 2026-05-08 21:52 | 47.45630 | 16.16555 | 37105 ft | 457 kts | 133° |
| 2026-05-08 21:52 | 47.41610 | 16.23825 | 37102 ft | 457 kts | 133° |
| 2026-05-08 21:53 | 47.37581 | 16.31087 | 37103 ft | 457 kts | 133° |
| 2026-05-08 21:53 | 47.33548 | 16.38344 | 37099 ft | 457 kts | 133° |
| 2026-05-08 21:54 | 47.29535 | 16.45546 | 37096 ft | 457 kts | 133° |
| 2026-05-08 21:54 | 47.25518 | 16.52799 | 37095 ft | 457 kts | 133° |
| 2026-05-08 21:55 | 47.21540 | 16.60081 | 37090 ft | 456 kts | 132° |
| 2026-05-08 21:56 | 47.15566 | 16.70984 | 37088 ft | 455 kts | 133° |
| 2026-05-08 21:56 | 47.11585 | 16.78214 | 37083 ft | 455 kts | 133° |
| 2026-05-08 21:57 | 47.07610 | 16.85408 | 37088 ft | 454 kts | 133° |
| 2026-05-08 21:57 | 47.03656 | 16.92545 | 37089 ft | 453 kts | 133° |
| 2026-05-08 21:58 | 46.99678 | 16.99705 | 37086 ft | 453 kts | 133° |
| 2026-05-08 21:58 | 46.95693 | 17.06860 | 37080 ft | 453 kts | 133° |